Latest Weather Observations for Yunta

IDS60801

Issued at 2:02 pm CST Sunday 26 April 2015 (issued every 30 minutes, with the page automatically refreshed every 10 minutes)

About weather observations | Map of weather stations | Latest weather observations for SA | Other Formats
Station Details ID: 020062 Name: YUNTA AIRSTRIP Lat: -32.57 Lon: 139.56 Height: 300.0 m
Data from the previous 72 hours. | See also: Recent months at Yunta
Date/Time
CST
Temp
°C
App
Temp
°C
Dew
Point
Rel
Hum
%
Delta-T
°C
Wind Press
QNH
hPa
Press
MSL
hPa
Rain
since 9 am
mm
Dir
 
Spd
km/h
Gust
km/h
Spd
kts
Gust
kts
26/02:00pm 16.1 11.5 6.3 52 4.8 S 20 28 11 15 1022.5 1021.9 0.2
26/01:30pm 15.6 10.8 5.8 52 4.8 SSW 20 30 11 16 1022.3 1021.8 0.2
26/01:00pm 14.7 10.0 6.0 56 4.2 S 20 30 11 16 1022.7 1022.1 0.2
26/12:30pm 14.6 9.9 5.9 56 4.2 S 20 28 11 15 1023.0 1022.4 0.2
26/12:00pm 14.8 10.2 6.4 57 4.1 SSW 20 30 11 16 1023.3 1022.7 0.2
26/11:30am 14.4 9.6 5.7 56 4.2 S 20 28 11 15 1023.8 1023.2 0.0
26/11:00am 14.4 9.8 5.7 56 4.2 S 19 28 10 15 1023.9 1023.3 0.0
26/10:30am 14.0 9.2 5.4 56 4.1 S 20 28 11 15 1023.8 1023.2 0.0
26/10:00am 13.0 8.5 4.2 55 4.1 S 17 28 9 15 1023.8 1023.2 0.0
26/09:30am 12.5 7.6 5.0 60 3.5 SSW 20 26 11 14 1023.9 1023.3 0.0
26/09:00am 12.1 6.8 4.8 61 3.4 S 22 28 12 15 1023.7 1023.1 0.0
26/08:30am 12.0 8.7 7.9 76 2.0 SSW 15 20 8 11 1023.6 1023.0 0.0
26/08:00am 10.8 8.5 9.1 89 0.9 S 11 13 6 7 1023.5 1022.9 0.0
26/07:30am 10.5 8.5 8.8 89 0.8 S 9 15 5 8 1023.1 1022.5 0.0
26/07:00am 10.9 8.8 8.1 83 1.4 S 9 15 5 8 1022.6 1022.0 0.0
26/06:30am 10.9 8.7 8.0 82 1.4 S 9 13 5 7 1022.1 1021.6 0.0
26/06:00am 11.0 8.9 8.1 82 1.4 S 9 13 5 7 1021.7 1021.2 0.0
26/05:30am 11.1 9.0 8.1 82 1.5 S 9 13 5 7 1021.5 1020.9 0.0
26/05:00am 11.1 9.0 8.1 82 1.5 S 9 11 5 6 1021.3 1020.7 0.0
26/04:30am 11.2 8.7 8.1 81 1.5 S 11 15 6 8 1021.0 1020.4 0.0
26/04:00am 11.3 8.7 7.8 79 1.7 S 11 19 6 10 1020.7 1020.1 0.0
26/03:30am 11.4 7.1 7.7 78 1.8 S 20 28 11 15 1020.4 1019.8 0.0
26/03:00am 11.5 7.1 7.4 76 2.0 S 20 28 11 15 1020.3 1019.7 0.0
26/02:30am 11.4 6.3 7.5 77 1.9 S 24 32 13 17 1020.3 1019.7 0.0
26/02:00am 11.8 6.8 7.9 77 1.9 S 24 32 13 17 1020.2 1019.6 0.0
26/01:30am 12.1 7.1 8.0 76 2.0 SSW 24 35 13 19 1020.2 1019.6 0.0
26/01:00am 12.3 6.9 8.0 75 2.1 SSW 26 35 14 19 1019.9 1019.3 0.0
26/12:30am 12.3 8.3 8.2 76 2.0 SSW 19 28 10 15 1019.8 1019.2 0.0
26/12:00am 12.4 8.4 8.3 76 2.1 SSW 19 28 10 15 1019.7 1019.1 0.0
 
Date/Time
CST
Temp
°C
App
Temp
°C
Dew
Point
Rel
Hum
%
Delta-T
°C
Wind Press
QNH
hPa
Press
MSL
hPa
Rain
since 9 am
mm
Dir
 
Spd
km/h
Gust
km/h
Spd
kts
Gust
kts
25/11:30pm 12.5 8.4 8.6 77 2.0 SSW 20 26 11 14 1019.7 1019.1 0.0
25/11:00pm 12.6 7.8 8.9 78 1.9 SSW 24 32 13 17 1019.6 1019.0 0.0
25/10:30pm 12.4 8.8 9.8 84 1.3 S 19 28 10 15 1019.6 1019.0 0.0
25/10:00pm 12.6 9.3 9.6 82 1.6 S 17 24 9 13 1019.2 1018.6 0.0
25/09:30pm 12.5 8.2 9.5 82 1.5 S 22 30 12 16 1018.7 1018.2 0.0
25/09:00pm 12.9 8.9 9.2 78 1.9 SSW 20 26 11 14 1018.4 1017.8 0.0
25/08:30pm 12.7 8.6 8.8 77 2.0 SW 20 28 11 15 1018.1 1017.5 0.0
25/08:00pm 13.1 8.2 8.4 73 2.4 SW 24 35 13 19 1017.7 1017.1 0.0
25/07:30pm 13.5 8.4 7.7 68 2.9 SW 24 33 13 18 1017.2 1016.6 0.0
25/07:00pm 14.2 9.4 7.5 64 3.4 SW 22 30 12 16 1017.1 1016.5 0.0
25/06:30pm 14.0 9.4 6.6 61 3.6 SW 20 30 11 16 1016.7 1016.1 0.0
25/06:00pm 14.6 8.4 6.2 57 4.1 SW 28 37 15 20 1016.0 1015.4 0.0
25/05:30pm 15.0 9.0 5.2 52 4.7 SW 26 35 14 19 1015.6 1014.9 0.0
25/05:00pm 15.3 8.6 5.5 52 4.7 SW 30 39 16 21 1015.1 1014.5 0.0
25/04:30pm 15.7 8.9 5.0 49 5.1 SW 30 43 16 23 1014.6 1014.0 0.0
25/04:09pm 16.2 9.7 4.9 47 5.4 SW 28 46 15 25 1014.3 1013.7 0.0
25/04:00pm 15.8 10.5 5.1 49 5.2 SW 22 32 12 17 1014.4 1013.8 0.0
25/03:30pm 15.9 10.0 4.0 45 5.6 SSW 24 37 13 20 1014.1 1013.5 0.0
25/03:00pm 16.2 10.0 4.3 45 5.7 SSW 26 35 14 19 1013.9 1013.3 0.0
25/02:30pm 16.2 9.2 4.3 45 5.7 SSW 30 43 16 23 1013.6 1013.0 0.0
25/02:00pm 16.1 8.6 4.5 46 5.5 S 33 48 18 26 1013.4 1012.8 0.0
25/01:30pm 15.6 8.8 4.9 49 5.1 SSW 30 44 16 24 1013.4 1012.8 0.0
25/01:00pm 15.6 9.8 6.1 53 4.7 SSW 26 39 14 21 1013.5 1012.9 0.0
25/12:30pm 14.2 7.4 5.0 54 4.4 SSW 30 41 16 22 1013.5 1012.9 0.0
25/12:00pm 13.6 5.8 4.7 55 4.2 SSW 35 46 19 25 1013.4 1012.8 0.0
25/11:30am 12.8 5.1 5.2 60 3.6 SSW 35 50 19 27 1013.3 1012.7 0.0
25/11:00am 12.1 4.8 5.5 64 3.1 SSW 33 46 18 25 1013.2 1012.6 0.0
25/10:30am 11.5 3.5 5.8 68 2.7 SSW 37 50 20 27 1012.8 1012.1 0.0
25/10:00am 10.4 2.1 6.2 75 2.0 SSW 39 52 21 28 1012.4 1011.7 0.0
25/09:30am 11.7 4.2 6.2 69 2.6 SSW 35 50 19 27 1011.6 1011.0 0.0
25/09:00am 11.2 2.4 5.5 68 2.7 SW 41 57 22 31 1011.0 1010.4 0.8
25/08:55am 11.4 3.3 5.3 66 2.9 SW 37 57 20 31 1010.6 1010.0 0.8
25/08:30am 10.8 2.2 4.9 67 2.7 SW 39 50 21 27 1009.9 1009.2 0.8
25/08:00am 10.3 3.0 5.5 72 2.2 SW 33 46 18 25 1009.3 1008.6 0.8
25/07:30am 10.3 2.8 6.5 77 1.8 WSW 35 48 19 26 1008.2 1007.6 0.8
25/07:00am 9.7 2.6 6.2 79 1.6 WSW 33 43 18 23 1007.5 1006.9 0.8
25/06:30am 9.9 2.8 6.4 79 1.7 WSW 33 44 18 24 1007.1 1006.4 0.8
25/06:00am 9.9 3.1 7.0 82 1.4 W 32 46 17 25 1006.4 1005.7 0.8
25/05:30am 9.9 3.2 7.5 85 1.2 W 32 43 17 23 1005.9 1005.2 0.8
25/05:00am 9.7 3.1 7.6 87 1.0 WNW 32 41 17 22 1005.7 1005.0 0.8
25/04:30am 9.0 3.4 7.0 87 1.0 W 26 44 14 24 1005.6 1004.9 0.8
25/04:00am 8.4 2.5 6.0 85 1.1 WNW 26 37 14 20 1006.0 1005.3 0.8
25/03:32am 9.4 2.0 6.8 84 1.2 WSW 35 56 19 30 1006.3 1005.6 0.4
25/03:30am 9.5 1.8 7.1 85 1.2 WSW 37 56 20 30 1006.2 1005.5 0.4
25/03:23am 10.2 1.7 6.9 80 1.6 W 41 56 22 30 1006.2 1005.5 0.0
25/03:00am 11.0 3.8 5.7 70 2.5 WNW 33 54 18 29 1005.4 1004.7 0.0
25/02:30am 11.1 4.7 5.4 68 2.7 NW 28 39 15 21 1005.8 1005.1 0.0
25/02:00am 10.7 4.6 4.8 67 2.7 NW 26 41 14 22 1006.2 1005.5 0.0
25/01:30am 10.6 3.3 4.5 66 2.8 NW 32 43 17 23 1006.4 1005.7 0.0
25/01:00am 10.7 3.3 4.2 64 2.9 NW 32 46 17 25 1006.6 1005.9 0.0
25/12:30am 10.1 4.6 4.0 66 2.7 NNW 22 43 12 23 1007.3 1006.7 0.0
25/12:00am 10.4 4.2 4.1 65 2.9 NNW 26 33 14 18 1008.2 1007.6 0.0
 
Date/Time
CST
Temp
°C
App
Temp
°C
Dew
Point
Rel
Hum
%
Delta-T
°C
Wind Press
QNH
hPa
Press
MSL
hPa
Rain
since 9 am
mm
Dir
 
Spd
km/h
Gust
km/h
Spd
kts
Gust
kts
24/11:30pm 10.7 4.0 3.5 61 3.2 NW 28 43 15 23 1008.6 1007.9 0.0
24/11:00pm 10.9 2.8 3.2 59 3.4 WNW 35 50 19 27 1008.9 1008.2 0.0
24/10:30pm 10.9 4.2 3.7 61 3.2 WNW 28 39 15 21 1009.3 1008.6 0.0
24/10:00pm 11.1 4.4 3.9 61 3.3 WNW 28 41 15 22 1009.6 1008.9 0.0
24/09:30pm 11.1 4.9 4.1 62 3.2 WNW 26 35 14 19 1009.8 1009.1 0.0
24/09:00pm 11.2 5.7 4.2 62 3.2 WNW 22 30 12 16 1010.1 1009.5 0.0
24/08:30pm 11.6 6.2 4.6 62 3.2 W 22 33 12 18 1010.0 1009.3 0.0
24/08:00pm 10.9 8.2 5.7 70 2.4 W 9 13 5 7 1010.3 1009.7 0.0
24/07:30pm 11.2 8.6 6.1 71 2.4 W 9 11 5 6 1010.2 1009.6 0.0
24/07:00pm 11.5 9.4 6.8 73 2.3 W 7 11 4 6 1010.1 1009.5 0.0
24/06:30pm 11.7 9.9 7.0 73 2.3 W 6 7 3 4 1010.0 1009.3 0.0
24/06:00pm 12.6 9.8 7.1 69 2.7 W 11 15 6 8 1009.8 1009.1 0.0
24/05:30pm 12.7 8.0 7.8 72 2.4 WSW 22 28 12 15 1009.7 1009.0 0.0
24/05:00pm 14.5 9.5 6.3 58 4.0 W 22 28 12 15 1009.1 1008.4 0.0
24/04:30pm 14.5 9.9 6.6 59 3.9 W 20 28 11 15 1009.2 1008.5 0.0
24/04:00pm 14.1 8.0 6.5 60 3.7 WSW 28 37 15 20 1009.3 1008.6 0.0
24/03:30pm 14.5 8.3 8.0 65 3.3 WSW 30 41 16 22 1009.2 1008.5 0.0
24/03:00pm 13.6 6.7 8.9 73 2.4 SW 35 44 19 24 1009.0 1008.3 0.0
24/02:30pm 16.7 10.4 8.9 60 4.1 WSW 32 48 17 26 1008.5 1007.8 0.0
24/02:00pm 18.3 11.8 6.5 46 5.9 W 30 44 16 24 1008.0 1007.4 0.0
24/01:30pm 18.8 12.3 4.9 40 6.8 WNW 28 39 15 21 1007.9 1007.3 0.0
24/01:00pm 18.5 11.9 6.0 44 6.2 W 30 43 16 23 1008.3 1007.7 0.0
24/12:30pm 18.9 12.4 6.7 45 6.2 W 30 43 16 23 1008.6 1007.9 0.0
24/12:00pm 18.4 12.8 7.2 48 5.7 W 26 39 14 21 1009.0 1008.3 0.0
24/11:30am 17.8 11.7 8.1 53 5.0 W 30 41 16 22 1009.6 1008.9 0.0
24/11:00am 17.3 12.1 8.7 57 4.5 W 26 39 14 21 1009.9 1009.2 0.0
24/10:30am 17.1 12.7 9.0 59 4.3 WNW 22 30 12 16 1010.0 1009.3 0.0
24/10:00am 16.4 12.0 8.9 61 3.9 WNW 22 28 12 15 1010.2 1009.6 0.0
24/09:30am 16.0 11.2 9.0 63 3.7 W 24 32 13 17 1010.4 1009.8 0.0
24/09:00am 15.4 12.0 9.1 66 3.3 WNW 17 24 9 13 1010.7 1010.1 0.0
24/08:30am 14.6 11.3 9.4 71 2.7 WNW 17 22 9 12 1010.6 1010.0 0.0
24/08:00am 13.8 12.4 9.5 75 2.2 WNW 7 11 4 6 1010.6 1010.0 0.0
24/07:30am 11.7 10.2 9.1 84 1.3 NW 7 9 4 5 1010.6 1010.0 0.0
24/07:00am 10.2 8.1 8.1 87 1.0 NNW 9 11 5 6 1010.4 1009.8 0.0
24/06:30am 10.4 8.2 8.0 85 1.2 WNW 9 9 5 5 1010.3 1009.7 0.0
24/06:00am 11.1 8.7 8.5 84 1.3 WNW 11 13 6 7 1010.4 1009.8 0.0
24/05:30am 10.6 8.9 8.2 85 1.2 W 7 9 4 5 1010.2 1009.6 0.0
24/05:00am 10.4 9.2 8.2 86 1.1 WNW 4 6 2 3 1009.9 1009.2 0.0
24/04:30am 10.8 9.2 8.2 84 1.3 W 6 7 3 4 1010.1 1009.5 0.0
24/04:00am 11.2 10.4 8.1 81 1.5 W 2 4 1 2 1010.1 1009.5 0.0
24/03:30am 11.6 9.9 8.5 81 1.6 W 7 9 4 5 1010.4 1009.8 0.0
24/03:00am 11.8 9.8 8.8 82 1.5 WNW 9 9 5 5 1010.6 1010.0 0.0
24/02:30am 12.5 10.5 8.8 78 1.9 W 9 13 5 7 1010.9 1010.3 0.0
24/02:00am 12.1 10.3 9.3 83 1.4 W 9 9 5 5 1011.2 1010.6 0.0
24/01:30am 11.8 10.5 9.2 84 1.3 W 6 7 3 4 1011.5 1010.9 0.0
24/01:00am 11.7 10.8 9.1 84 1.3 WNW 4 6 2 3 1011.6 1011.0 0.0
24/12:30am 11.9 11.7 9.1 83 1.4 CALM 0 0 0 0 1011.7 1011.1 0.0
24/12:00am 12.3 12.1 9.1 81 1.6 CALM 0 0 0 0 1012.1 1011.4 0.0
 
Date/Time
CST
Temp
°C
App
Temp
°C
Dew
Point
Rel
Hum
%
Delta-T
°C
Wind Press
QNH
hPa
Press
MSL
hPa
Rain
since 9 am
mm
Dir
 
Spd
km/h
Gust
km/h
Spd
kts
Gust
kts
23/11:30pm 12.5 12.3 9.1 80 1.7 CALM 0 2 0 1 1012.4 1011.7 0.0
23/11:00pm 12.7 11.8 9.2 79 1.8 NNW 4 6 2 3 1012.9 1012.2 0.0
23/10:30pm 13.7 12.7 9.0 73 2.4 SSW 4 7 2 4 1013.2 1012.6 0.0
23/10:00pm 14.4 12.6 9.4 72 2.6 SW 9 9 5 5 1013.5 1012.9 0.0
23/09:30pm 15.1 13.6 9.2 68 3.1 SW 7 11 4 6 1013.7 1013.1 0.0
23/09:00pm 15.3 14.7 8.8 65 3.4 S 2 4 1 2 1013.6 1013.0 0.0
23/08:30pm 15.9 14.3 8.6 62 3.8 SSW 7 11 4 6 1013.7 1013.1 0.0
23/08:00pm 15.0 14.0 10.4 74 2.5 SSW 6 6 3 3 1013.5 1012.9 0.0
23/07:30pm 15.3 14.2 10.1 71 2.8 SSW 6 6 3 3 1013.4 1012.8 0.0
23/07:00pm 15.7 15.8 10.0 69 3.0 CALM 0 0 0 0 1013.4 1012.8 0.0
23/06:30pm 16.3 16.2 9.3 63 3.7 CALM 0 0 0 0 1013.2 1012.6 0.0
23/06:00pm 17.3 16.7 7.6 53 5.0 CALM 0 0 0 0 1013.0 1012.4 0.0
23/05:30pm 19.2 18.2 7.3 46 6.1 SW 2 4 1 2 1013.1 1012.5 0.0
23/05:00pm 19.2 16.8 7.0 45 6.2 WSW 9 13 5 7 1013.0 1012.4 0.0
23/04:30pm 19.5 16.9 6.3 42 6.7 WSW 9 15 5 8 1013.1 1012.5 0.0
23/04:00pm 20.0 18.0 6.4 41 6.9 WSW 6 15 3 8 1013.2 1012.6 0.0
23/03:30pm 19.9 17.6 5.9 40 7.1 SW 7 11 4 6 1013.4 1012.8 0.0
23/03:00pm 19.7 17.5 5.4 39 7.1 SW 6 11 3 6 1013.5 1012.9 0.0
23/02:30pm 19.6 17.4 5.3 39 7.1 WSW 6 11 3 6 1013.8 1013.2 0.0

Other Formats:

Comma delimited format used in spreadsheet applications
http://www.bom.gov.au/fwo/IDS60801/IDS60801.94684.axf

JavaScript Object Notation format (JSON) in row-major order
http://www.bom.gov.au/fwo/IDS60801/IDS60801.94684.json